createdAt,value
2023-04-22T00:02:01.075Z,19.80
2023-04-22T00:04:28.339Z,15.80
2023-04-22T00:06:55.326Z,18.60
2023-04-22T00:09:21.865Z,16.80
2023-04-22T00:11:48.430Z,21.30
2023-04-22T00:14:15.072Z,17.00
2023-04-22T00:16:41.583Z,15.20
2023-04-22T00:19:08.791Z,17.60
2023-04-22T00:21:35.549Z,18.40
2023-04-22T00:24:02.451Z,23.30
2023-04-22T00:26:29.005Z,27.60
2023-04-22T00:28:55.696Z,28.10
2023-04-22T00:31:23.678Z,23.50
2023-04-22T00:33:50.251Z,23.40
2023-04-22T00:36:16.702Z,29.40
2023-04-22T00:38:47.221Z,35.60
2023-04-22T00:41:13.996Z,31.90
2023-04-22T00:43:40.924Z,18.40
2023-04-22T00:46:08.224Z,19.40
2023-04-22T00:48:36.687Z,20.10
2023-04-22T00:51:03.455Z,28.20
2023-04-22T00:53:29.997Z,20.00
2023-04-22T00:55:56.490Z,22.60
2023-04-22T00:58:27.423Z,20.60
2023-04-22T01:00:53.969Z,25.30
2023-04-22T01:03:21.586Z,20.30
2023-04-22T01:05:48.884Z,21.50
2023-04-22T01:08:15.619Z,22.60
2023-04-22T01:10:42.343Z,20.30
2023-04-22T01:13:09.019Z,31.80
2023-04-22T01:15:35.775Z,25.40
2023-04-22T01:18:02.743Z,26.00
2023-04-22T01:20:29.601Z,21.00
2023-04-22T01:22:59.419Z,15.90
2023-04-22T01:25:26.401Z,19.90
2023-04-22T01:27:53.508Z,23.50
2023-04-22T01:30:20.352Z,26.50
2023-04-22T01:32:47.196Z,21.40
2023-04-22T01:35:13.751Z,27.00
2023-04-22T01:37:40.269Z,23.60
2023-04-22T01:40:08.626Z,24.40
2023-04-22T01:42:35.707Z,24.20
2023-04-22T01:45:02.412Z,21.60
2023-04-22T01:47:29.035Z,19.90
2023-04-22T01:49:55.510Z,22.00
2023-04-22T01:52:22.250Z,19.50
2023-04-22T01:54:48.714Z,53.20
2023-04-22T01:57:15.861Z,102.90
2023-04-22T01:59:42.570Z,129.30
2023-04-22T02:02:09.191Z,57.10
2023-04-22T02:04:36.015Z,28.90
2023-04-22T02:07:02.780Z,22.00
2023-04-22T02:09:29.388Z,20.10
2023-04-22T02:11:56.088Z,22.70
2023-04-22T02:14:23.030Z,19.90
2023-04-22T02:16:49.595Z,19.60
2023-04-22T02:19:16.036Z,17.90
2023-04-22T02:21:48.234Z,19.70
2023-04-22T02:24:14.722Z,18.60
2023-04-22T02:26:42.485Z,16.00
2023-04-22T02:29:08.962Z,22.80
2023-04-22T02:31:39.038Z,20.70
2023-04-22T02:34:05.644Z,18.20
2023-04-22T02:36:33.912Z,17.90
2023-04-22T02:39:04.897Z,20.80
2023-04-22T02:41:31.566Z,19.70
2023-04-22T02:43:58.151Z,22.80
2023-04-22T02:46:24.680Z,21.20
2023-04-22T02:48:51.350Z,15.00
2023-04-22T02:51:17.989Z,16.30
2023-04-22T02:53:47.188Z,16.80
2023-04-22T02:56:16.387Z,19.30
2023-04-22T02:58:45.384Z,20.60
2023-04-22T03:01:12.051Z,21.20
2023-04-22T03:03:38.828Z,19.30
2023-04-22T03:06:05.681Z,19.90
2023-04-22T03:08:32.302Z,18.80
2023-04-22T03:11:01.208Z,21.30
2023-04-22T03:13:27.729Z,16.40
2023-04-22T03:15:54.348Z,15.90
2023-04-22T03:18:20.970Z,21.40
2023-04-22T03:20:48.904Z,16.40
2023-04-22T03:23:15.569Z,16.40
2023-04-22T03:25:42.210Z,17.70
2023-04-22T03:28:08.765Z,14.50
2023-04-22T03:30:35.265Z,17.60
2023-04-22T03:33:02.160Z,15.30
2023-04-22T03:35:28.679Z,13.20
2023-04-22T03:37:55.292Z,14.60
2023-04-22T03:40:21.761Z,20.70
2023-04-22T03:42:48.274Z,14.30
2023-04-22T03:45:15.404Z,18.30
2023-04-22T03:47:42.137Z,16.80
2023-04-22T03:50:08.885Z,14.30
2023-04-22T03:52:35.259Z,15.10
2023-04-22T03:55:01.774Z,18.90
2023-04-22T03:57:28.278Z,18.40
2023-04-22T03:59:54.892Z,19.10
2023-04-22T04:02:21.492Z,14.50
2023-04-22T04:04:48.550Z,14.00
2023-04-22T04:07:15.591Z,13.90
2023-04-22T04:09:42.390Z,14.80
2023-04-22T04:12:08.984Z,14.10
2023-04-22T04:14:37.991Z,12.10
2023-04-22T04:17:04.650Z,12.40
2023-04-22T04:19:31.551Z,14.20
2023-04-22T04:21:58.092Z,16.80
2023-04-22T04:24:25.199Z,14.80
2023-04-22T04:26:53.017Z,14.70
2023-04-22T04:29:23.148Z,14.30
2023-04-22T04:31:49.939Z,13.40
2023-04-22T04:34:17.064Z,15.90
2023-04-22T04:36:45.761Z,12.70
2023-04-22T04:39:12.619Z,15.70
2023-04-22T04:41:40.563Z,15.20
2023-04-22T04:44:07.238Z,13.60
2023-04-22T04:46:33.982Z,15.30
2023-04-22T04:49:01.206Z,14.30
2023-04-22T04:51:27.789Z,11.80
2023-04-22T04:53:54.372Z,14.50
2023-04-22T04:56:20.867Z,14.50
2023-04-22T04:58:47.427Z,14.00
2023-04-22T05:01:14.269Z,18.50
2023-04-22T05:03:41.575Z,28.80
2023-04-22T05:06:11.296Z,29.10
2023-04-22T05:08:38.548Z,36.70
2023-04-22T05:11:05.154Z,28.40
2023-04-22T05:13:34.195Z,24.50
2023-04-22T05:16:00.984Z,18.60
2023-04-22T05:18:27.814Z,21.70
2023-04-22T05:20:54.814Z,15.00
2023-04-22T05:23:21.963Z,16.20
2023-04-22T05:25:50.316Z,13.30
2023-04-22T05:28:17.984Z,14.10
2023-04-22T05:30:44.752Z,14.20
2023-04-22T05:33:11.367Z,13.10
2023-04-22T05:35:37.940Z,12.40
2023-04-22T05:38:04.447Z,14.30
2023-04-22T05:40:30.908Z,14.60
2023-04-22T05:42:57.374Z,15.70
2023-04-22T05:45:23.887Z,16.90
2023-04-22T05:47:50.467Z,17.00
2023-04-22T05:50:17.482Z,19.50
2023-04-22T05:52:44.420Z,14.40
2023-04-22T05:55:11.562Z,15.60
2023-04-22T05:57:38.132Z,15.80
2023-04-22T06:00:04.910Z,13.30
2023-04-22T06:02:31.717Z,13.30
2023-04-22T06:04:58.997Z,13.70
2023-04-22T06:07:28.672Z,15.90
2023-04-22T06:10:04.498Z,12.00
2023-04-22T06:12:33.280Z,11.10
2023-04-22T06:15:00.156Z,14.60
2023-04-22T06:17:26.743Z,15.70
2023-04-22T06:19:53.335Z,12.40
2023-04-22T06:22:21.910Z,16.00
2023-04-22T06:24:48.438Z,13.80
2023-04-22T06:27:20.348Z,17.80
2023-04-22T06:29:46.787Z,17.70
2023-04-22T06:32:13.388Z,19.10
2023-04-22T06:34:40.133Z,14.20
2023-04-22T06:37:06.590Z,15.60
2023-04-22T06:39:33.079Z,13.20
2023-04-22T06:42:00.872Z,13.00
2023-04-22T06:44:28.232Z,13.40
2023-04-22T06:46:56.561Z,13.80
2023-04-22T06:49:24.559Z,12.20
2023-04-22T06:51:51.011Z,12.40
2023-04-22T06:54:17.502Z,12.00
2023-04-22T06:56:43.972Z,12.60
2023-04-22T06:59:10.513Z,11.90
2023-04-22T07:01:37.092Z,15.60
2023-04-22T07:04:05.726Z,13.30
2023-04-22T07:06:32.397Z,13.60
2023-04-22T07:08:59.216Z,14.20
2023-04-22T07:11:27.116Z,11.30
2023-04-22T07:13:53.701Z,22.00
2023-04-22T07:16:20.500Z,13.90
2023-04-22T07:18:47.581Z,14.00
2023-04-22T07:21:14.314Z,11.50
2023-04-22T07:23:41.249Z,11.90
2023-04-22T07:26:07.812Z,14.70
2023-04-22T07:28:34.599Z,13.00
2023-04-22T07:31:01.634Z,15.60
2023-04-22T07:33:28.258Z,12.80
2023-04-22T07:35:58.560Z,17.10
2023-04-22T07:38:25.388Z,14.20
2023-04-22T07:40:51.864Z,13.00
2023-04-22T07:43:18.424Z,14.80
2023-04-22T07:45:45.009Z,324.80
2023-04-22T07:48:11.572Z,23.80
2023-04-22T07:50:38.919Z,304.30
2023-04-22T07:53:05.508Z,14.90
2023-04-22T07:55:32.180Z,29.50
2023-04-22T07:58:00.391Z,20.70
2023-04-22T08:00:26.892Z,11.60
2023-04-22T08:02:53.479Z,16.30
2023-04-22T08:05:20.067Z,15.60
2023-04-22T08:07:46.564Z,10.70
2023-04-22T08:10:13.063Z,15.50
2023-04-22T08:20:18.198Z,6.10
2023-04-22T08:22:47.214Z,11.00
2023-04-22T08:25:14.973Z,7.50
2023-04-22T08:27:42.784Z,11.70
2023-04-22T08:30:11.041Z,9.60
2023-04-22T08:32:38.954Z,10.90
2023-04-22T08:35:06.942Z,8.90
2023-04-22T08:37:34.803Z,6.00
2023-04-22T08:40:02.582Z,6.40
2023-04-22T08:42:30.884Z,9.20
2023-04-22T08:44:58.683Z,10.70
2023-04-22T08:47:27.217Z,8.70
2023-04-22T08:49:55.561Z,7.90
2023-04-22T08:52:23.420Z,6.50
2023-04-22T08:54:51.387Z,15.70
2023-04-22T08:57:20.057Z,7.30
2023-04-22T08:59:48.444Z,6.10
2023-04-22T09:02:20.695Z,11.40
2023-04-22T09:04:49.787Z,9.40
2023-04-22T09:07:22.377Z,5.90
2023-04-22T09:09:53.763Z,6.20
2023-04-22T09:12:21.825Z,7.20
2023-04-22T09:14:49.634Z,8.90
2023-04-22T09:17:18.897Z,5.80
2023-04-22T09:19:57.131Z,5.70
2023-04-22T09:22:25.965Z,4.70
2023-04-22T09:24:53.696Z,8.90
2023-04-22T09:27:24.397Z,5.10
2023-04-22T09:29:52.990Z,6.80
2023-04-22T09:32:21.104Z,6.40
2023-04-22T09:34:53.110Z,6.40
2023-04-22T09:37:24.653Z,5.90
2023-04-22T09:39:54.202Z,6.10
2023-04-22T09:42:22.424Z,9.70
2023-04-22T09:44:53.665Z,6.70
2023-04-22T09:47:23.776Z,7.70
2023-04-22T09:49:51.714Z,8.70
2023-04-22T09:52:25.177Z,4.70
2023-04-22T09:54:53.829Z,12.30
2023-04-22T09:57:23.206Z,8.50
2023-04-22T09:59:51.919Z,4.80
2023-04-22T10:02:28.758Z,7.20
2023-04-22T10:04:59.285Z,4.70
2023-04-22T10:07:31.863Z,7.00
2023-04-22T10:10:00.154Z,8.00
2023-04-22T10:12:35.337Z,5.60
2023-04-22T10:15:07.351Z,8.30
2023-04-22T10:17:37.679Z,8.20
2023-04-22T10:20:13.723Z,6.40
2023-04-22T10:22:43.040Z,6.50
2023-04-22T10:25:11.746Z,6.40
2023-04-22T10:27:39.773Z,8.00
2023-04-22T10:30:08.656Z,7.90
2023-04-22T10:32:36.506Z,8.00
2023-04-22T10:35:12.458Z,9.40
2023-04-22T10:37:43.586Z,6.00
2023-04-22T10:40:16.732Z,7.10
2023-04-22T10:42:49.476Z,8.10
2023-04-22T10:45:17.364Z,7.60
2023-04-22T10:47:45.340Z,12.00
2023-04-22T10:50:17.477Z,10.20
2023-04-22T10:52:53.073Z,8.70
2023-04-22T10:55:21.651Z,7.90
2023-04-22T10:57:51.152Z,12.00
2023-04-22T11:00:19.036Z,7.90
2023-04-22T11:02:47.829Z,7.00
2023-04-22T11:05:23.963Z,7.40
2023-04-22T11:07:54.558Z,6.60
2023-04-22T11:10:44.357Z,13.00
2023-04-22T11:13:17.044Z,6.90
2023-04-22T11:15:49.017Z,6.60
2023-04-22T11:18:21.225Z,11.30
2023-04-22T11:20:50.402Z,7.10
2023-04-22T11:23:19.912Z,9.70
2023-04-22T11:25:47.709Z,11.20
2023-04-22T11:28:15.484Z,10.40
2023-04-22T11:30:43.305Z,7.20
2023-04-22T11:33:14.623Z,10.90
2023-04-22T11:35:43.029Z,11.30
2023-04-22T11:38:10.901Z,8.60
2023-04-22T11:40:42.010Z,9.00
2023-04-22T11:43:11.922Z,8.80
2023-04-22T11:45:40.036Z,11.70
2023-04-22T11:48:08.902Z,9.80
2023-04-22T11:50:37.837Z,10.70
2023-04-22T11:53:13.504Z,11.30
2023-04-22T11:55:41.735Z,14.00
2023-04-22T11:58:10.867Z,10.10
2023-04-22T12:00:48.860Z,14.20
2023-04-22T12:03:16.770Z,12.80
2023-04-22T12:05:45.851Z,10.90
2023-04-22T12:08:15.101Z,6.70
2023-04-22T12:10:47.441Z,10.40
2023-04-22T12:13:22.576Z,9.50
2023-04-22T12:15:54.369Z,8.40
2023-04-22T12:18:51.685Z,10.70
2023-04-22T12:21:26.080Z,7.30
2023-04-22T12:23:53.983Z,7.90
2023-04-22T12:26:26.543Z,7.00
2023-04-22T12:28:58.035Z,8.50
2023-04-22T12:31:26.961Z,6.30
2023-04-22T12:33:55.001Z,4.90
2023-04-22T12:36:23.797Z,5.70
2023-04-22T12:38:51.876Z,5.10
2023-04-22T12:41:19.727Z,7.10
2023-04-22T12:43:48.773Z,5.40
2023-04-22T12:46:16.729Z,6.90
2023-04-22T12:48:44.591Z,6.10
2023-04-22T12:51:12.415Z,6.10
2023-04-22T12:53:40.222Z,4.50
2023-04-22T12:56:08.245Z,7.30
2023-04-22T12:58:35.984Z,12.10
2023-04-22T13:01:03.855Z,6.50
2023-04-22T13:03:31.797Z,8.40
2023-04-22T13:05:59.654Z,5.50
2023-04-22T13:08:27.928Z,6.10
2023-04-22T13:10:55.633Z,7.20
2023-04-22T13:13:23.358Z,11.00
2023-04-22T13:15:54.097Z,10.40
2023-04-22T13:18:23.352Z,7.80
2023-04-22T13:20:51.659Z,5.90
2023-04-22T13:23:21.936Z,6.60
2023-04-22T13:25:50.536Z,7.50
2023-04-22T13:28:18.791Z,6.90
2023-04-22T13:30:46.682Z,14.10
2023-04-22T13:33:14.438Z,7.60
2023-04-22T13:35:42.902Z,8.70
2023-04-22T13:38:10.651Z,6.30
2023-04-22T13:40:38.415Z,7.60
2023-04-22T13:43:06.264Z,6.50
2023-04-22T13:45:34.055Z,7.90
2023-04-22T13:48:01.893Z,6.30
2023-04-22T13:50:29.784Z,5.20
2023-04-22T13:52:57.487Z,5.50
2023-04-22T13:55:26.721Z,4.10
2023-04-22T13:57:54.653Z,8.50
2023-04-22T14:00:22.363Z,6.60
2023-04-22T14:02:50.474Z,5.60
2023-04-22T14:05:18.424Z,8.20
2023-04-22T14:07:46.386Z,7.40
2023-04-22T14:10:14.384Z,10.40
2023-04-22T14:12:42.345Z,6.80
2023-04-22T14:15:11.316Z,6.20
2023-04-22T14:17:40.299Z,7.40
2023-04-22T14:20:10.154Z,7.90
2023-04-22T14:22:38.050Z,6.80
2023-04-22T14:25:06.545Z,6.00
2023-04-22T14:27:34.409Z,9.20
2023-04-22T14:30:04.300Z,7.00
2023-04-22T14:32:32.336Z,7.50
2023-04-22T14:35:00.228Z,12.00
2023-04-22T14:37:28.187Z,6.10
2023-04-22T14:39:56.027Z,6.00
2023-04-22T14:42:24.448Z,6.10
2023-04-22T14:44:52.261Z,5.10
2023-04-22T14:47:20.212Z,8.40
2023-04-22T14:49:48.000Z,6.50
2023-04-22T14:52:15.903Z,6.10
2023-04-22T14:54:43.732Z,8.90
2023-04-22T14:57:12.473Z,6.70
2023-04-22T14:59:40.702Z,8.00
2023-04-22T15:02:16.063Z,5.70
2023-04-22T15:04:44.460Z,9.20
2023-04-22T15:07:12.457Z,8.10
2023-04-22T15:09:40.784Z,9.10
2023-04-22T15:12:09.144Z,9.30
2023-04-22T15:14:37.368Z,7.30
2023-04-22T15:17:05.802Z,8.90
2023-04-22T15:19:33.918Z,7.80
2023-04-22T15:22:02.075Z,6.20
2023-04-22T15:24:30.317Z,4.40
2023-04-22T15:26:58.295Z,6.00
2023-04-22T15:29:28.373Z,6.50
2023-04-22T15:31:56.854Z,7.90
2023-04-22T15:34:24.990Z,9.00
2023-04-22T15:36:52.779Z,5.10
2023-04-22T15:39:20.807Z,6.10
2023-04-22T15:41:48.548Z,7.30
2023-04-22T15:44:16.886Z,8.70
2023-04-22T15:46:45.705Z,8.50
2023-04-22T15:49:14.931Z,7.00
2023-04-22T15:51:43.241Z,5.40
2023-04-22T15:54:12.026Z,9.00
2023-04-22T15:56:39.754Z,4.90
2023-04-22T15:59:07.541Z,7.80
2023-04-22T16:01:35.560Z,6.90
2023-04-22T16:04:04.034Z,6.70
2023-04-22T16:06:32.403Z,9.60
2023-04-22T16:09:00.297Z,7.20
2023-04-22T16:11:28.127Z,4.50
2023-04-22T16:13:55.876Z,7.10
2023-04-22T16:16:25.380Z,10.50
2023-04-22T16:18:53.537Z,6.00
2023-04-22T16:21:21.291Z,7.00
2023-04-22T16:23:51.864Z,6.60
2023-04-22T16:26:19.880Z,8.90
2023-04-22T16:28:47.794Z,10.50
2023-04-22T16:31:18.137Z,9.20
2023-04-22T16:33:46.494Z,12.80
2023-04-22T16:36:14.241Z,6.60
2023-04-22T16:38:42.416Z,7.50
2023-04-22T16:41:11.705Z,8.70
2023-04-22T16:43:41.093Z,7.60
2023-04-22T16:46:09.361Z,14.20
2023-04-22T16:48:37.189Z,14.40
2023-04-22T16:51:05.502Z,5.20
2023-04-22T16:53:33.426Z,8.40
2023-04-22T16:56:01.829Z,8.50
2023-04-22T16:58:29.643Z,8.90
2023-04-22T17:00:57.431Z,6.90
2023-04-22T17:03:26.588Z,12.70
2023-04-22T17:05:54.473Z,12.30
2023-04-22T17:08:22.229Z,12.50
2023-04-22T17:10:52.346Z,14.80
2023-04-22T17:13:20.897Z,8.90
2023-04-22T17:15:48.767Z,14.30
2023-04-22T17:18:16.683Z,17.10
2023-04-22T17:20:44.635Z,8.80
2023-04-22T17:23:12.413Z,14.10
2023-04-22T17:25:40.560Z,14.90
2023-04-22T17:28:08.368Z,12.60
2023-04-22T17:30:36.164Z,12.50
2023-04-22T17:33:03.907Z,14.20
2023-04-22T17:35:31.767Z,16.10
2023-04-22T17:37:59.512Z,16.30
2023-04-22T17:40:27.295Z,21.80
2023-04-22T17:42:55.450Z,17.60
2023-04-22T17:45:23.258Z,18.90
2023-04-22T17:47:51.466Z,16.70
2023-04-22T17:50:19.774Z,14.80
2023-04-22T17:52:47.594Z,19.00
2023-04-22T17:55:15.453Z,12.90
2023-04-22T17:57:43.199Z,20.70
2023-04-22T18:00:11.323Z,25.00
2023-04-22T18:02:39.286Z,32.00
2023-04-22T18:05:07.941Z,26.00
2023-04-22T18:07:35.751Z,41.50
2023-04-22T18:10:03.985Z,42.60
2023-04-22T18:12:31.938Z,47.50
2023-04-22T18:15:02.426Z,29.20
2023-04-22T18:17:31.366Z,33.00
2023-04-22T18:20:09.882Z,34.20
2023-04-22T18:22:42.395Z,36.40
2023-04-22T18:25:10.339Z,50.70
2023-04-22T18:27:38.176Z,105.00
2023-04-22T18:30:06.458Z,107.60
2023-04-22T18:32:34.459Z,99.60
2023-04-22T18:35:02.393Z,95.80
2023-04-22T18:37:31.001Z,114.50
2023-04-22T18:39:59.089Z,106.70
2023-04-22T18:42:27.276Z,96.80
2023-04-22T18:44:55.094Z,78.90
2023-04-22T18:47:23.033Z,77.20
2023-04-22T18:49:50.976Z,70.70
2023-04-22T18:52:18.895Z,53.60
2023-04-22T18:54:46.733Z,55.70
2023-04-22T18:57:14.481Z,60.70
2023-04-22T18:59:45.088Z,70.30
2023-04-22T19:02:13.399Z,54.50
2023-04-22T19:04:41.899Z,54.80
2023-04-22T19:07:09.897Z,66.20
2023-04-22T19:09:37.715Z,69.90
2023-04-22T19:12:13.432Z,64.30
2023-04-22T19:14:41.892Z,62.40
2023-04-22T19:17:10.252Z,67.50
2023-04-22T19:19:38.255Z,68.20
2023-04-22T19:22:06.049Z,71.70
2023-04-22T19:24:35.305Z,113.10
2023-04-22T19:27:03.496Z,126.60
2023-04-22T19:29:31.537Z,120.50
2023-04-22T19:32:03.485Z,138.30
2023-04-22T19:34:31.685Z,150.00
2023-04-22T19:36:59.908Z,158.30
2023-04-22T19:39:27.747Z,149.60
2023-04-22T19:41:55.730Z,161.90
2023-04-22T19:44:23.639Z,152.90
2023-04-22T19:46:51.568Z,143.50
2023-04-22T19:49:19.749Z,142.80
2023-04-22T19:51:47.927Z,135.00
2023-04-22T19:54:16.511Z,104.30
2023-04-22T19:56:45.276Z,97.70
2023-04-22T19:59:13.116Z,95.40
2023-04-22T20:01:41.219Z,79.10
2023-04-22T20:04:09.122Z,86.90
2023-04-22T20:06:37.599Z,74.10
2023-04-22T20:09:05.810Z,64.10
2023-04-22T20:11:33.924Z,92.80
2023-04-22T20:14:02.191Z,160.70
2023-04-22T20:16:31.269Z,178.30
2023-04-22T20:18:59.080Z,140.00
2023-04-22T20:21:27.538Z,178.80
2023-04-22T20:23:56.942Z,165.50
2023-04-22T20:26:24.855Z,117.80
2023-04-22T20:28:53.797Z,79.10
2023-04-22T20:31:23.415Z,78.30
2023-04-22T20:33:51.500Z,87.70
2023-04-22T20:36:20.412Z,85.00
2023-04-22T20:38:49.265Z,94.10
2023-04-22T20:41:18.852Z,100.00
2023-04-22T20:43:47.306Z,97.40
2023-04-22T20:46:15.127Z,97.80
2023-04-22T20:48:43.063Z,109.50
2023-04-22T20:51:10.825Z,126.30
2023-04-22T20:53:38.569Z,137.80
2023-04-22T20:56:07.857Z,131.50
2023-04-22T20:58:35.632Z,127.40
2023-04-22T21:01:03.769Z,121.30
2023-04-22T21:03:32.283Z,117.30
2023-04-22T21:06:00.737Z,106.60
2023-04-22T21:08:28.705Z,104.30
2023-04-22T21:10:56.541Z,107.10
2023-04-22T21:13:24.474Z,112.30
2023-04-22T21:15:59.361Z,109.40
2023-04-22T21:18:28.919Z,110.60
2023-04-22T21:20:57.039Z,99.30
2023-04-22T21:23:25.423Z,105.20
2023-04-22T21:25:57.041Z,138.30
2023-04-22T21:28:25.234Z,167.00
2023-04-22T21:30:53.453Z,237.70
2023-04-22T21:33:21.395Z,189.80
2023-04-22T21:35:49.225Z,140.50
2023-04-22T21:38:17.043Z,128.10
2023-04-22T21:40:44.739Z,122.60
2023-04-22T21:43:12.613Z,121.50
2023-04-22T21:45:40.486Z,114.10
2023-04-22T21:48:08.246Z,105.70
2023-04-22T21:50:36.020Z,81.90
2023-04-22T21:53:03.738Z,82.90
2023-04-22T21:55:31.941Z,79.90
2023-04-22T21:57:59.725Z,89.70
2023-04-22T22:00:27.517Z,78.50
2023-04-22T22:02:55.529Z,82.60
2023-04-22T22:05:23.429Z,66.20
2023-04-22T22:07:52.977Z,68.10
2023-04-22T22:10:22.057Z,68.50
2023-04-22T22:12:50.109Z,69.90
2023-04-22T22:15:18.017Z,76.70
2023-04-22T22:17:46.289Z,72.00
2023-04-22T22:20:16.753Z,92.10
2023-04-22T22:22:45.250Z,110.20
2023-04-22T22:25:13.853Z,83.90
2023-04-22T22:27:45.623Z,91.90
2023-04-22T22:30:13.842Z,83.30
2023-04-22T22:32:41.867Z,86.10
2023-04-22T22:35:09.960Z,81.50
2023-04-22T22:37:37.858Z,81.90
2023-04-22T22:40:06.041Z,79.20
2023-04-22T22:42:33.771Z,76.80
2023-04-22T22:45:01.503Z,82.40
2023-04-22T22:47:29.309Z,69.40
2023-04-22T22:49:57.102Z,73.60
2023-04-22T22:52:24.809Z,72.00
2023-04-22T22:54:52.515Z,64.60
2023-04-22T22:57:20.926Z,58.90
2023-04-22T22:59:48.792Z,48.80
2023-04-22T23:02:17.228Z,51.50
2023-04-22T23:04:45.993Z,47.00
2023-04-22T23:07:14.786Z,42.70
2023-04-22T23:09:42.638Z,43.40
2023-04-22T23:12:10.671Z,39.70
2023-04-22T23:14:38.937Z,38.00
2023-04-22T23:17:07.134Z,40.30
2023-04-22T23:19:35.273Z,40.40
2023-04-22T23:22:04.999Z,42.90
2023-04-22T23:24:32.870Z,43.50
2023-04-22T23:27:01.314Z,38.60
2023-04-22T23:29:29.425Z,43.10
2023-04-22T23:31:57.333Z,43.70
2023-04-22T23:34:25.145Z,46.00
2023-04-22T23:36:53.476Z,39.00
2023-04-22T23:39:21.251Z,40.80
2023-04-22T23:41:49.010Z,39.00
2023-04-22T23:44:16.758Z,46.60
2023-04-22T23:46:44.558Z,41.90
2023-04-22T23:49:12.386Z,44.30
2023-04-22T23:51:40.390Z,42.20
2023-04-22T23:54:08.212Z,37.50
2023-04-22T23:56:36.067Z,41.20
2023-04-22T23:59:03.893Z,38.90
